Port Eads, Louisiana
Current Conditions -  °F | °C
As of 3:51 PM on Monday 20 Oct 2014 (Local Time) from KBVE Reporting Station
Clear Clear  
Wind Chill: 75°   Ceiling: Unl
Heat Index: 75°   Visibility: 10mi
Dew Point: 66°   Wind: 9mph
Humidity: 73%   Direction: 40°NE
Pressure: 29.99"   Gusts: NA
Location:  29.2037°N, 89.3875°W
Report Text: KBVE 202051Z AUTO 04008KT 10SM CLR 24/19 A2999 RMK AO2 SLP156 T02390189 56013
Loading
Personal Weather Stations






























Interactive Weather Map
Tropical Storm Tracking
New forecast layout! Learn more

10-Day Weather Forecast

Advertisements
Track Severe Weather on mobile